createdAt,value
2018-03-30T00:02:21.915Z,8.23
2018-03-30T00:04:48.341Z,8.70
2018-03-30T00:07:15.166Z,9.53
2018-03-30T00:09:55.243Z,7.10
2018-03-30T00:12:21.984Z,9.07
2018-03-30T00:14:48.454Z,8.10
2018-03-30T00:17:14.881Z,7.00
2018-03-30T00:19:42.212Z,6.60
2018-03-30T00:22:08.763Z,5.33
2018-03-30T00:24:36.021Z,7.20
2018-03-30T00:27:02.436Z,7.67
2018-03-30T00:29:28.878Z,8.50
2018-03-30T00:31:55.431Z,8.30
2018-03-30T00:34:21.880Z,7.47
2018-03-30T00:36:49.079Z,6.93
2018-03-30T00:39:15.820Z,7.20
2018-03-30T00:41:42.256Z,6.80
2018-03-30T00:44:08.795Z,7.60
2018-03-30T00:46:35.527Z,7.67
2018-03-30T00:49:02.993Z,7.47
2018-03-30T00:51:29.897Z,8.53
2018-03-30T00:53:56.433Z,7.00
2018-03-30T00:56:22.879Z,7.20
2018-03-30T00:58:49.241Z,7.43
2018-03-30T01:01:16.446Z,6.50
2018-03-30T01:03:44.011Z,6.13
2018-03-30T01:06:10.380Z,6.70
2018-03-30T01:08:36.902Z,6.70
2018-03-30T01:11:09.424Z,6.93
2018-03-30T01:13:36.793Z,7.30
2018-03-30T01:16:04.105Z,6.87
2018-03-30T01:18:30.629Z,6.73
2018-03-30T01:20:57.162Z,7.30
2018-03-30T01:23:23.574Z,7.90
2018-03-30T01:25:50.031Z,6.93
2018-03-30T01:28:16.538Z,6.77
2018-03-30T01:30:43.013Z,5.37
2018-03-30T01:33:09.561Z,7.57
2018-03-30T01:35:35.971Z,7.60
2018-03-30T01:38:02.443Z,6.60
2018-03-30T01:40:29.678Z,5.60
2018-03-30T01:42:56.628Z,7.03
2018-03-30T01:45:23.066Z,6.90
2018-03-30T01:47:50.187Z,6.30
2018-03-30T01:50:16.619Z,6.57
2018-03-30T01:52:43.164Z,7.60
2018-03-30T01:55:09.712Z,6.97
2018-03-30T01:57:36.874Z,7.13
2018-03-30T02:00:05.426Z,6.50
2018-03-30T02:02:32.419Z,6.87
2018-03-30T02:04:59.861Z,7.80
2018-03-30T02:07:26.270Z,5.77
2018-03-30T02:09:52.767Z,7.03
2018-03-30T02:12:19.244Z,7.57
2018-03-30T02:14:45.636Z,8.50
2018-03-30T02:17:13.736Z,8.87
2018-03-30T02:19:40.274Z,8.30
2018-03-30T02:22:06.711Z,8.10
2018-03-30T02:24:33.185Z,7.87
2018-03-30T02:26:59.706Z,8.33
2018-03-30T02:29:26.145Z,8.10
2018-03-30T02:31:53.325Z,8.50
2018-03-30T02:34:19.744Z,7.10
2018-03-30T02:36:46.159Z,7.47
2018-03-30T02:39:12.520Z,7.20
2018-03-30T02:41:38.917Z,8.13
2018-03-30T02:44:05.798Z,7.93
2018-03-30T02:46:32.338Z,9.23
2018-03-30T02:48:58.814Z,7.50
2018-03-30T02:51:25.254Z,7.10
2018-03-30T02:53:51.673Z,7.60
2018-03-30T02:56:18.143Z,7.40
2018-03-30T02:58:44.682Z,6.50
2018-03-30T03:01:11.552Z,7.20
2018-03-30T03:03:38.040Z,7.57
2018-03-30T03:06:04.598Z,7.17
2018-03-30T03:08:31.089Z,6.87
2018-03-30T03:10:58.276Z,7.47
2018-03-30T03:13:25.137Z,7.60
2018-03-30T03:15:51.848Z,7.60
2018-03-30T03:18:20.602Z,7.30
2018-03-30T03:20:47.044Z,7.30
2018-03-30T03:23:13.493Z,7.73
2018-03-30T03:25:39.969Z,7.70
2018-03-30T03:28:07.904Z,7.53
2018-03-30T03:30:34.409Z,6.60
2018-03-30T03:33:01.371Z,7.07
2018-03-30T03:35:28.547Z,7.50
2018-03-30T03:37:55.364Z,7.23
2018-03-30T03:40:21.854Z,6.50
2018-03-30T03:42:48.265Z,6.07
2018-03-30T03:48:12.979Z,5.93
2018-03-30T03:50:39.804Z,6.47
2018-03-30T03:53:06.651Z,5.20
2018-03-30T03:55:33.622Z,6.67
2018-03-30T03:58:00.046Z,7.00
2018-03-30T04:00:26.804Z,7.80
2018-03-30T04:02:54.072Z,5.37
2018-03-30T04:05:22.279Z,8.60
2018-03-30T04:07:49.750Z,6.33
2018-03-30T04:10:16.131Z,6.70
2018-03-30T04:12:42.597Z,6.93
2018-03-30T04:15:09.554Z,7.30
2018-03-30T04:17:36.334Z,5.80
2018-03-30T04:20:03.789Z,6.63
2018-03-30T04:22:31.623Z,6.40
2018-03-30T04:24:59.782Z,6.93
2018-03-30T04:27:30.095Z,8.30
2018-03-30T04:29:56.544Z,7.93
2018-03-30T04:32:23.583Z,5.93
2018-03-30T04:34:50.145Z,5.80
2018-03-30T04:37:16.580Z,6.90
2018-03-30T04:39:44.036Z,7.03
2018-03-30T04:42:11.883Z,7.20
2018-03-30T04:44:38.229Z,8.97
2018-03-30T04:47:04.630Z,8.30
2018-03-30T04:49:32.412Z,7.80
2018-03-30T04:51:58.877Z,7.93
2018-03-30T04:54:25.495Z,8.60
2018-03-30T04:56:51.937Z,8.40
2018-03-30T04:59:18.354Z,7.50
2018-03-30T05:01:45.489Z,8.60
2018-03-30T05:04:12.657Z,8.07
2018-03-30T05:06:39.077Z,8.80
2018-03-30T05:09:05.524Z,6.40
2018-03-30T05:11:35.036Z,8.27
2018-03-30T05:14:01.560Z,7.20
2018-03-30T05:16:27.955Z,7.50
2018-03-30T05:18:54.474Z,7.33
2018-03-30T05:21:20.928Z,8.27
2018-03-30T05:23:47.301Z,7.70
2018-03-30T05:26:13.944Z,8.20
2018-03-30T05:28:40.349Z,7.50
2018-03-30T05:31:06.777Z,7.60
2018-03-30T05:33:33.161Z,8.47
2018-03-30T05:35:59.889Z,9.60
2018-03-30T05:38:26.290Z,9.50
2018-03-30T05:40:54.362Z,9.00
2018-03-30T05:43:21.488Z,9.40
2018-03-30T05:45:48.837Z,8.90
2018-03-30T05:48:15.553Z,8.10
2018-03-30T05:50:42.697Z,7.93
2018-03-30T05:53:09.256Z,7.33
2018-03-30T05:55:36.789Z,8.30
2018-03-30T05:58:03.882Z,7.87
2018-03-30T06:00:30.330Z,6.43
2018-03-30T06:02:57.924Z,6.73
2018-03-30T06:05:25.275Z,8.53
2018-03-30T06:07:52.471Z,6.60
2018-03-30T06:10:22.903Z,7.50
2018-03-30T06:12:49.596Z,7.20
2018-03-30T06:15:16.605Z,6.93
2018-03-30T06:17:44.707Z,7.30
2018-03-30T06:20:14.515Z,6.60
2018-03-30T06:22:41.701Z,6.70
2018-03-30T06:25:08.447Z,8.33
2018-03-30T06:27:35.285Z,6.57
2018-03-30T06:30:02.912Z,7.13
2018-03-30T06:32:31.400Z,6.80
2018-03-30T06:34:57.878Z,5.67
2018-03-30T06:37:24.305Z,5.87
2018-03-30T06:39:51.064Z,6.30
2018-03-30T06:42:17.528Z,5.90
2018-03-30T06:44:44.025Z,7.07
2018-03-30T06:47:13.694Z,6.77
2018-03-30T06:49:40.453Z,7.10
2018-03-30T06:52:07.286Z,6.70
2018-03-30T06:54:35.438Z,7.90
2018-03-30T06:57:03.611Z,6.00
2018-03-30T06:59:30.033Z,6.37
2018-03-30T07:01:57.452Z,6.77
2018-03-30T07:04:24.163Z,6.60
2018-03-30T07:06:50.645Z,6.10
2018-03-30T07:09:17.578Z,6.53
2018-03-30T07:11:44.822Z,5.80
2018-03-30T07:14:12.005Z,5.83
2018-03-30T07:16:38.691Z,6.37
2018-03-30T07:19:05.172Z,5.83
2018-03-30T07:21:31.829Z,7.70
2018-03-30T07:23:58.291Z,7.17
2018-03-30T07:26:25.993Z,7.27
2018-03-30T07:28:52.888Z,7.63
2018-03-30T07:31:19.394Z,6.47
2018-03-30T07:33:46.964Z,6.57
2018-03-30T07:36:14.083Z,6.70
2018-03-30T07:38:41.387Z,6.23
2018-03-30T07:41:08.913Z,6.53
2018-03-30T07:43:36.982Z,6.10
2018-03-30T07:46:05.302Z,5.97
2018-03-30T07:48:32.497Z,6.33
2018-03-30T07:50:59.284Z,6.43
2018-03-30T07:53:25.799Z,5.50
2018-03-30T07:55:52.173Z,7.23
2018-03-30T07:58:19.336Z,7.03
2018-03-30T08:00:45.734Z,5.87
2018-03-30T08:03:12.058Z,6.70
2018-03-30T08:05:38.774Z,5.70
2018-03-30T08:08:06.828Z,6.80
2018-03-30T08:10:33.221Z,6.33
2018-03-30T08:13:00.344Z,6.90
2018-03-30T08:15:26.827Z,6.50
2018-03-30T08:17:53.229Z,6.20
2018-03-30T08:20:19.974Z,6.10
2018-03-30T08:22:46.448Z,6.43
2018-03-30T08:25:13.897Z,6.33
2018-03-30T08:27:40.637Z,7.30
2018-03-30T08:30:08.672Z,6.80
2018-03-30T08:32:35.091Z,6.23
2018-03-30T08:35:02.965Z,6.90
2018-03-30T08:37:31.047Z,5.37
2018-03-30T08:39:57.387Z,5.10
2018-03-30T08:42:24.880Z,6.00
2018-03-30T08:44:52.020Z,6.40
2018-03-30T08:47:19.168Z,6.60
2018-03-30T08:49:45.549Z,6.03
2018-03-30T08:52:13.533Z,6.40
2018-03-30T08:54:40.285Z,5.73
2018-03-30T08:57:07.325Z,6.50
2018-03-30T08:59:33.723Z,5.87
2018-03-30T09:02:00.470Z,6.10
2018-03-30T09:04:27.954Z,5.10
2018-03-30T09:06:55.789Z,6.33
2018-03-30T09:09:22.567Z,6.60
2018-03-30T09:11:48.924Z,6.40
2018-03-30T09:14:15.316Z,6.20
2018-03-30T09:16:42.000Z,6.80
2018-03-30T09:19:09.092Z,7.23
2018-03-30T09:21:36.224Z,6.77
2018-03-30T09:24:03.071Z,7.30
2018-03-30T09:26:30.249Z,6.23
2018-03-30T09:28:56.660Z,5.87
2018-03-30T09:31:24.697Z,6.57
2018-03-30T09:33:52.066Z,5.60
2018-03-30T09:36:19.400Z,6.30
2018-03-30T09:38:47.338Z,7.37
2018-03-30T09:41:13.765Z,6.60
2018-03-30T09:43:40.132Z,6.40
2018-03-30T09:46:07.257Z,6.50
2018-03-30T09:48:33.757Z,7.20
2018-03-30T09:51:03.443Z,6.97
2018-03-30T09:56:03.969Z,6.00
2018-03-30T09:58:32.483Z,6.30
2018-03-30T10:01:01.718Z,5.87
2018-03-30T10:03:28.529Z,5.37
2018-03-30T10:05:55.347Z,6.00
2018-03-30T10:08:22.483Z,5.50
2018-03-30T10:10:49.983Z,6.13
2018-03-30T10:13:16.579Z,6.67
2018-03-30T10:15:44.005Z,7.10
2018-03-30T10:18:12.165Z,6.97
2018-03-30T10:20:38.763Z,6.13
2018-03-30T10:23:05.120Z,6.53
2018-03-30T10:25:31.623Z,6.83
2018-03-30T10:27:59.722Z,7.17
2018-03-30T10:30:26.472Z,6.83
2018-03-30T10:32:52.841Z,6.87
2018-03-30T10:35:19.200Z,6.73
2018-03-30T10:37:45.561Z,6.50
2018-03-30T10:40:12.756Z,6.90
2018-03-30T10:42:39.482Z,6.33
2018-03-30T10:45:05.960Z,7.40
2018-03-30T10:47:33.116Z,6.33
2018-03-30T10:49:59.930Z,6.57
2018-03-30T10:52:28.098Z,7.00
2018-03-30T10:54:55.029Z,6.77
2018-03-30T10:57:21.459Z,6.23
2018-03-30T10:59:48.582Z,6.80
2018-03-30T11:02:15.366Z,6.23
2018-03-30T11:04:41.716Z,6.40
2018-03-30T11:07:08.058Z,7.07
2018-03-30T11:09:34.445Z,5.97
2018-03-30T11:12:01.183Z,6.33
2018-03-30T11:14:28.307Z,6.40
2018-03-30T11:16:54.865Z,7.00
2018-03-30T11:19:21.624Z,6.77
2018-03-30T11:21:47.940Z,6.20
2018-03-30T11:24:14.421Z,7.17
2018-03-30T11:26:41.204Z,6.27
2018-03-30T11:29:09.288Z,6.20
2018-03-30T11:31:37.245Z,6.37
2018-03-30T11:34:05.322Z,5.97
2018-03-30T11:36:31.796Z,5.70
2018-03-30T11:38:58.605Z,5.47
2018-03-30T11:41:25.354Z,5.47
2018-03-30T11:43:51.675Z,5.10
2018-03-30T11:46:20.211Z,5.13
2018-03-30T11:48:47.844Z,6.13
2018-03-30T11:51:14.613Z,5.17
2018-03-30T11:53:42.056Z,6.30
2018-03-30T11:56:09.250Z,5.00
2018-03-30T11:58:37.359Z,5.30
2018-03-30T12:01:04.169Z,6.03
2018-03-30T12:03:31.404Z,6.10
2018-03-30T12:05:57.766Z,5.30
2018-03-30T12:08:24.885Z,5.63
2018-03-30T12:10:51.259Z,6.40
2018-03-30T12:13:18.370Z,5.67
2018-03-30T12:15:45.217Z,5.30
2018-03-30T12:18:11.821Z,5.60
2018-03-30T12:20:39.288Z,5.80
2018-03-30T12:23:06.632Z,6.13
2018-03-30T12:25:34.779Z,6.50
2018-03-30T12:28:02.238Z,5.67
2018-03-30T12:30:29.526Z,5.37
2018-03-30T12:32:56.972Z,4.33
2018-03-30T12:35:23.555Z,5.10
2018-03-30T12:37:51.883Z,5.03
2018-03-30T12:40:18.311Z,4.80
2018-03-30T12:42:44.685Z,5.50
2018-03-30T12:45:11.596Z,6.53
2018-03-30T12:47:38.306Z,5.20
2018-03-30T12:50:04.699Z,6.20
2018-03-30T12:52:32.236Z,6.30
2018-03-30T12:54:58.628Z,6.63
2018-03-30T12:57:24.991Z,6.03
2018-03-30T12:59:53.226Z,5.50
2018-03-30T13:02:20.396Z,6.17
2018-03-30T13:04:46.709Z,5.13
2018-03-30T13:07:13.503Z,5.80
2018-03-30T13:09:41.045Z,4.87
2018-03-30T13:12:07.441Z,5.30
2018-03-30T13:14:33.871Z,5.63
2018-03-30T13:17:01.128Z,4.87
2018-03-30T13:19:27.573Z,5.83
2018-03-30T13:21:54.410Z,5.10
2018-03-30T13:24:20.824Z,5.20
2018-03-30T13:26:47.543Z,5.57
2018-03-30T13:29:14.124Z,5.60
2018-03-30T13:31:41.277Z,6.67
2018-03-30T13:34:08.178Z,5.10
2018-03-30T13:36:34.661Z,4.97
2018-03-30T13:39:01.750Z,6.23
2018-03-30T13:41:28.958Z,5.07
2018-03-30T13:43:55.373Z,6.00
2018-03-30T13:46:22.576Z,5.97
2018-03-30T13:48:49.285Z,5.63
2018-03-30T13:51:21.425Z,5.47
2018-03-30T13:53:51.293Z,5.83
2018-03-30T13:56:24.404Z,5.90
2018-03-30T13:58:51.242Z,5.50
2018-03-30T14:01:31.688Z,5.83
2018-03-30T14:07:23.489Z,5.83
2018-03-30T14:09:50.304Z,6.60
2018-03-30T14:12:19.211Z,6.53
2018-03-30T14:14:45.645Z,5.83
2018-03-30T14:17:23.219Z,5.37
2018-03-30T14:19:51.527Z,5.23
2018-03-30T14:22:20.654Z,5.70
2018-03-30T14:24:47.200Z,5.57
2018-03-30T14:30:11.141Z,5.90
2018-03-30T14:32:50.892Z,5.50
2018-03-30T14:35:30.729Z,4.73
2018-03-30T14:37:58.279Z,6.10
2018-03-30T14:40:29.801Z,5.80
2018-03-30T14:42:58.987Z,5.50
2018-03-30T14:48:21.737Z,5.73
2018-03-30T14:50:52.359Z,5.00
2018-03-30T14:53:21.727Z,5.77
2018-03-30T14:55:52.728Z,4.97
2018-03-30T14:58:20.907Z,4.70
2018-03-30T15:00:49.101Z,5.30
2018-03-30T15:03:17.096Z,6.20
2018-03-30T15:09:06.279Z,6.93
2018-03-30T15:11:35.945Z,5.63
2018-03-30T15:14:07.698Z,5.83
2018-03-30T15:19:34.669Z,4.57
2018-03-30T15:22:03.142Z,4.77
2018-03-30T15:24:34.435Z,5.10
2018-03-30T15:27:03.582Z,6.50
2018-03-30T15:29:35.018Z,4.60
2018-03-30T15:35:20.108Z,4.70
2018-03-30T15:37:46.561Z,5.20
2018-03-30T15:40:14.375Z,4.50
2018-03-30T15:42:42.834Z,4.50
2018-03-30T15:45:10.900Z,4.97
2018-03-30T15:47:39.020Z,4.87
2018-03-30T15:50:05.646Z,4.77
2018-03-30T15:52:33.121Z,4.70
2018-03-30T15:54:59.537Z,4.90
2018-03-30T15:57:25.939Z,5.03
2018-03-30T15:59:54.111Z,4.60
2018-03-30T16:02:22.223Z,5.03
2018-03-30T16:04:50.159Z,4.70
2018-03-30T16:07:18.377Z,4.20
2018-03-30T16:09:46.596Z,4.57
2018-03-30T16:12:13.337Z,5.37
2018-03-30T16:14:39.779Z,4.47
2018-03-30T16:17:07.919Z,5.57
2018-03-30T16:19:34.039Z,4.80
2018-03-30T16:22:00.567Z,5.30
2018-03-30T16:24:27.547Z,4.43
2018-03-30T16:26:53.691Z,4.90
2018-03-30T16:29:21.695Z,5.47
2018-03-30T16:31:48.578Z,4.50
2018-03-30T16:34:16.600Z,5.17
2018-03-30T16:36:43.169Z,4.63
2018-03-30T16:39:09.319Z,5.57
2018-03-30T16:41:35.467Z,6.00
2018-03-30T16:44:01.986Z,5.47
2018-03-30T16:46:28.161Z,5.50
2018-03-30T16:48:54.350Z,6.03
2018-03-30T16:51:22.318Z,4.83
2018-03-30T16:53:48.809Z,5.27
2018-03-30T16:56:15.498Z,5.33
2018-03-30T16:58:41.710Z,5.50
2018-03-30T17:01:08.244Z,4.90
2018-03-30T17:03:34.417Z,5.40
2018-03-30T17:06:00.752Z,5.33
2018-03-30T17:08:26.976Z,4.57
2018-03-30T17:10:53.153Z,5.20
2018-03-30T17:13:21.073Z,5.53
2018-03-30T17:15:47.622Z,5.93
2018-03-30T17:18:14.179Z,5.53
2018-03-30T17:20:41.281Z,6.20
2018-03-30T17:23:07.563Z,6.90
2018-03-30T17:25:35.063Z,6.73
2018-03-30T17:28:02.063Z,6.53
2018-03-30T17:30:29.071Z,5.70
2018-03-30T17:32:56.007Z,6.10
2018-03-30T17:35:22.889Z,6.20
2018-03-30T17:37:50.554Z,5.40
2018-03-30T17:40:18.012Z,6.87
2018-03-30T17:42:45.028Z,7.03
2018-03-30T17:45:11.294Z,6.17
2018-03-30T17:47:37.892Z,6.33
2018-03-30T17:50:04.458Z,6.33
2018-03-30T17:52:30.623Z,7.07
2018-03-30T17:54:58.195Z,7.10
2018-03-30T17:57:25.157Z,8.10
2018-03-30T17:59:51.428Z,8.47
2018-03-30T18:02:17.816Z,7.60
2018-03-30T18:04:44.364Z,6.50
2018-03-30T18:07:10.931Z,6.73
2018-03-30T18:09:37.438Z,5.77
2018-03-30T18:12:04.303Z,6.67
2018-03-30T18:14:30.448Z,6.67
2018-03-30T18:16:56.622Z,6.00
2018-03-30T18:19:22.853Z,6.40
2018-03-30T18:21:50.648Z,7.33
2018-03-30T18:24:17.888Z,7.17
2018-03-30T18:26:44.363Z,7.00
2018-03-30T18:29:11.275Z,5.60
2018-03-30T18:31:37.783Z,6.83
2018-03-30T18:34:05.769Z,6.43
2018-03-30T18:36:33.133Z,6.47
2018-03-30T18:38:59.273Z,6.70
2018-03-30T18:41:27.023Z,7.00
2018-03-30T18:43:55.043Z,6.10
2018-03-30T18:46:21.957Z,7.70
2018-03-30T18:48:48.971Z,7.40
2018-03-30T18:51:15.223Z,7.30
2018-03-30T18:53:41.413Z,5.97
2018-03-30T18:56:09.452Z,6.63
2018-03-30T18:58:37.412Z,7.40
2018-03-30T19:01:05.536Z,7.80
2018-03-30T19:03:31.805Z,8.10
2018-03-30T19:05:58.743Z,7.93
2018-03-30T19:08:25.040Z,7.00
2018-03-30T19:10:51.271Z,7.90
2018-03-30T19:13:18.482Z,7.00
2018-03-30T19:15:45.676Z,7.50
2018-03-30T19:18:12.230Z,7.00
2018-03-30T19:20:39.173Z,7.27
2018-03-30T19:23:05.386Z,7.60
2018-03-30T19:25:32.050Z,7.17
2018-03-30T19:27:58.624Z,6.83
2018-03-30T19:30:24.788Z,5.97
2018-03-30T19:32:50.997Z,7.23
2018-03-30T19:35:17.206Z,7.50
2018-03-30T19:37:44.401Z,7.53
2018-03-30T19:40:12.401Z,7.37
2018-03-30T19:42:38.931Z,6.60
2018-03-30T19:45:05.107Z,6.90
2018-03-30T19:47:31.673Z,7.03
2018-03-30T19:49:59.656Z,7.67
2018-03-30T19:52:26.561Z,7.20
2018-03-30T19:54:52.895Z,7.27
2018-03-30T19:57:19.217Z,6.60
2018-03-30T19:59:46.587Z,5.77
2018-03-30T20:02:14.654Z,6.37
2018-03-30T20:04:40.806Z,6.07
2018-03-30T20:07:06.969Z,5.03
2018-03-30T20:09:34.414Z,6.57
2018-03-30T20:12:02.354Z,5.80
2018-03-30T20:14:30.478Z,5.80
2018-03-30T20:16:56.802Z,5.50
2018-03-30T20:19:23.039Z,6.33
2018-03-30T20:21:49.641Z,5.83
2018-03-30T20:24:17.696Z,5.97
2018-03-30T20:26:45.696Z,6.60
2018-03-30T20:29:11.911Z,5.20
2018-03-30T20:31:38.368Z,5.00
2018-03-30T20:34:04.482Z,5.87
2018-03-30T20:36:30.699Z,4.70
2018-03-30T20:38:57.856Z,5.87
2018-03-30T20:41:25.917Z,6.20
2018-03-30T20:43:54.020Z,5.50
2018-03-30T20:46:20.231Z,6.20
2018-03-30T20:48:46.800Z,5.90
2018-03-30T20:51:18.097Z,5.30
2018-03-30T20:53:45.656Z,5.67
2018-03-30T20:56:13.598Z,5.70
2018-03-30T20:58:39.829Z,5.07
2018-03-30T21:01:06.517Z,5.60
2018-03-30T21:03:33.428Z,6.00
2018-03-30T21:05:59.953Z,5.73
2018-03-30T21:08:26.242Z,6.00
2018-03-30T21:10:53.460Z,6.10
2018-03-30T21:13:19.654Z,6.00
2018-03-30T21:15:46.759Z,6.10
2018-03-30T21:18:14.444Z,6.93
2018-03-30T21:20:41.364Z,4.07
2018-03-30T21:23:08.374Z,6.07
2018-03-30T21:25:34.592Z,6.23
2018-03-30T21:28:01.475Z,6.80
2018-03-30T21:30:27.960Z,6.20
2018-03-30T21:32:54.094Z,5.33
2018-03-30T21:35:20.295Z,5.13
2018-03-30T21:37:46.506Z,5.53
2018-03-30T21:40:13.268Z,4.90
2018-03-30T21:42:39.384Z,6.53
2018-03-30T21:45:06.975Z,5.97
2018-03-30T21:47:34.559Z,5.83
2018-03-30T21:50:00.716Z,6.50
2018-03-30T21:52:27.200Z,5.50
2018-03-30T21:54:53.329Z,6.40
2018-03-30T21:57:20.350Z,5.83
2018-03-30T21:59:47.748Z,6.70
2018-03-30T22:02:14.015Z,6.93
2018-03-30T22:04:40.377Z,7.40
2018-03-30T22:07:06.788Z,6.50
2018-03-30T22:09:33.713Z,6.23
2018-03-30T22:11:59.852Z,6.03
2018-03-30T22:14:26.238Z,6.83
2018-03-30T22:16:52.549Z,7.00
2018-03-30T22:19:19.100Z,7.00
2018-03-30T22:21:47.085Z,7.27
2018-03-30T22:24:13.606Z,7.07
2018-03-30T22:26:40.579Z,7.70
2018-03-30T22:29:07.580Z,7.43
2018-03-30T22:31:33.830Z,7.50
2018-03-30T22:33:59.947Z,7.10
2018-03-30T22:36:27.061Z,6.67
2018-03-30T22:38:53.992Z,7.70
2018-03-30T22:41:21.197Z,7.37
2018-03-30T22:43:47.377Z,8.13
2018-03-30T22:46:14.419Z,6.00
2018-03-30T22:48:42.504Z,6.73
2018-03-30T22:51:08.796Z,6.73
2018-03-30T22:53:35.713Z,7.70
2018-03-30T22:56:01.889Z,8.03
2018-03-30T22:58:29.539Z,8.40
2018-03-30T23:00:56.276Z,7.03
2018-03-30T23:03:22.464Z,7.07
2018-03-30T23:05:49.106Z,7.60
2018-03-30T23:08:15.363Z,6.50
2018-03-30T23:10:41.974Z,7.63
2018-03-30T23:13:10.044Z,7.67
2018-03-30T23:15:36.245Z,6.43
2018-03-30T23:18:02.500Z,5.97
2018-03-30T23:20:29.408Z,6.77
2018-03-30T23:22:55.576Z,7.20
2018-03-30T23:25:22.516Z,6.60
2018-03-30T23:27:49.184Z,6.87
2018-03-30T23:30:15.408Z,7.60
2018-03-30T23:32:42.374Z,6.80
2018-03-30T23:35:08.744Z,7.23
2018-03-30T23:37:35.020Z,6.93
2018-03-30T23:40:01.209Z,6.33
2018-03-30T23:42:28.188Z,6.20
2018-03-30T23:44:55.533Z,6.87
2018-03-30T23:47:21.769Z,6.17
2018-03-30T23:49:48.415Z,7.50
2018-03-30T23:52:14.977Z,6.77
2018-03-30T23:54:41.710Z,6.70
2018-03-30T23:57:08.636Z,6.43
2018-03-30T23:59:35.633Z,6.60
